createdAt,value
2023-03-15T00:01:55.257Z,1.10
2023-03-15T00:04:24.995Z,1.05
2023-03-15T00:06:53.449Z,0.57
2023-03-15T00:09:22.154Z,0.95
2023-03-15T00:11:50.021Z,0.60
2023-03-15T00:14:17.633Z,1.58
2023-03-15T00:16:45.208Z,1.10
2023-03-15T00:19:16.474Z,1.10
2023-03-15T00:21:44.563Z,1.33
2023-03-15T00:24:12.145Z,0.90
2023-03-15T00:26:39.700Z,0.32
2023-03-15T00:29:07.337Z,1.77
2023-03-15T00:31:35.966Z,0.30
2023-03-15T00:34:03.526Z,0.30
2023-03-15T00:36:33.184Z,0.30
2023-03-15T00:39:00.644Z,1.17
2023-03-15T00:41:28.213Z,1.35
2023-03-15T00:43:55.655Z,1.17
2023-03-15T00:46:23.129Z,1.17
2023-03-15T00:48:50.913Z,0.50
2023-03-15T00:51:21.142Z,1.17
2023-03-15T00:53:51.450Z,0.30
2023-03-15T00:56:20.911Z,0.50
2023-03-15T00:58:48.744Z,0.45
2023-03-15T01:01:18.271Z,1.52
2023-03-15T01:03:46.181Z,0.65
2023-03-15T01:06:16.174Z,0.65
2023-03-15T01:08:44.294Z,0.65
2023-03-15T01:11:14.919Z,0.30
2023-03-15T01:13:42.423Z,0.70
2023-03-15T01:16:11.802Z,0.93
2023-03-15T01:18:39.622Z,1.38
2023-03-15T01:21:07.496Z,1.25
2023-03-15T01:23:35.250Z,0.30
2023-03-15T01:26:03.271Z,1.75
2023-03-15T01:28:34.252Z,0.95
2023-03-15T01:31:05.558Z,1.10
2023-03-15T01:33:33.948Z,1.05
2023-03-15T01:36:03.638Z,0.30
2023-03-15T01:38:32.067Z,0.93
2023-03-15T01:41:00.331Z,1.27
2023-03-15T01:43:28.976Z,0.40
2023-03-15T01:46:03.657Z,1.30
2023-03-15T01:48:36.726Z,1.90
2023-03-15T01:51:09.548Z,0.90
2023-03-15T01:53:37.700Z,1.50
2023-03-15T01:56:06.914Z,1.67
2023-03-15T01:58:37.030Z,3.38
2023-03-15T02:01:06.125Z,1.33
2023-03-15T02:03:37.083Z,0.85
2023-03-15T02:06:08.729Z,3.22
2023-03-15T02:08:40.357Z,1.83
2023-03-15T02:11:08.108Z,1.42
2023-03-15T02:13:36.963Z,2.60
2023-03-15T02:16:06.986Z,1.48
2023-03-15T02:18:36.554Z,2.00
2023-03-15T02:21:13.268Z,3.13
2023-03-15T02:23:40.696Z,2.95
2023-03-15T02:26:18.406Z,1.85
2023-03-15T02:28:47.917Z,2.92
2023-03-15T02:31:16.044Z,1.55
2023-03-15T02:33:45.752Z,1.70
2023-03-15T02:36:18.741Z,2.67
2023-03-15T02:41:19.844Z,1.98
2023-03-15T02:43:53.975Z,2.85
2023-03-15T02:46:22.283Z,5.15
2023-03-15T02:48:51.558Z,1.75
2023-03-15T02:51:22.155Z,1.55
2023-03-15T02:53:49.832Z,3.30
2023-03-15T02:56:18.018Z,3.13
2023-03-15T02:58:46.130Z,3.28
2023-03-15T03:01:16.502Z,3.05
2023-03-15T03:03:46.772Z,2.28
2023-03-15T03:06:15.965Z,1.98
2023-03-15T03:08:47.313Z,3.90
2023-03-15T03:11:15.817Z,3.08
2023-03-15T03:13:44.236Z,2.55
2023-03-15T03:16:12.326Z,2.22
2023-03-15T03:18:42.094Z,1.67
2023-03-15T03:21:09.758Z,2.60
2023-03-15T03:23:37.718Z,1.45
2023-03-15T03:26:16.646Z,1.80
2023-03-15T03:28:46.327Z,2.20
2023-03-15T03:31:18.771Z,0.80
2023-03-15T03:33:47.863Z,2.53
2023-03-15T03:36:15.692Z,1.40
2023-03-15T03:38:49.196Z,2.63
2023-03-15T03:48:46.359Z,1.05
2023-03-15T03:51:15.654Z,1.60
2023-03-15T03:53:43.314Z,2.10
2023-03-15T03:56:12.530Z,1.95
2023-03-15T03:58:39.920Z,2.05
2023-03-15T04:01:07.327Z,2.55
2023-03-15T04:03:34.686Z,3.40
2023-03-15T04:06:02.075Z,0.95
2023-03-15T04:08:30.767Z,5.43
2023-03-15T04:10:58.770Z,5.82
2023-03-15T04:13:26.931Z,5.43
2023-03-15T04:15:57.377Z,4.70
2023-03-15T04:18:25.536Z,5.10
2023-03-15T04:20:54.529Z,2.47
2023-03-15T04:23:23.772Z,3.78
2023-03-15T04:25:55.156Z,6.05
2023-03-15T04:28:23.674Z,3.88
2023-03-15T04:30:51.766Z,6.45
2023-03-15T04:33:19.345Z,6.40
2023-03-15T04:35:46.854Z,4.90
2023-03-15T04:38:14.267Z,6.93
2023-03-15T04:40:42.745Z,2.92
2023-03-15T04:43:11.487Z,7.05
2023-03-15T04:45:38.896Z,6.10
2023-03-15T04:48:06.615Z,4.30
2023-03-15T04:50:34.003Z,4.05
2023-03-15T04:53:01.598Z,5.15
2023-03-15T04:55:29.035Z,3.97
2023-03-15T04:57:57.371Z,3.50
2023-03-15T05:00:26.176Z,4.18
2023-03-15T05:02:54.899Z,6.13
2023-03-15T05:05:23.969Z,2.97
2023-03-15T05:07:53.334Z,2.70
2023-03-15T05:10:20.747Z,4.63
2023-03-15T05:12:48.115Z,3.58
2023-03-15T05:15:15.603Z,3.35
2023-03-15T05:17:46.374Z,2.53
2023-03-15T05:20:14.178Z,3.25
2023-03-15T05:22:42.074Z,2.53
2023-03-15T05:25:10.926Z,3.17
2023-03-15T05:27:39.168Z,2.78
2023-03-15T05:30:08.264Z,2.67
2023-03-15T05:32:39.373Z,1.45
2023-03-15T05:35:09.813Z,1.73
2023-03-15T05:37:37.196Z,1.88
2023-03-15T05:40:08.085Z,1.90
2023-03-15T05:42:35.688Z,3.42
2023-03-15T05:45:03.103Z,4.32
2023-03-15T05:47:36.516Z,2.60
2023-03-15T05:50:04.927Z,2.13
2023-03-15T05:52:33.684Z,1.83
2023-03-15T05:55:01.058Z,1.63
2023-03-15T05:57:28.481Z,2.15
2023-03-15T05:59:56.023Z,1.65
2023-03-15T06:02:23.671Z,1.45
2023-03-15T06:04:51.060Z,1.80
2023-03-15T06:07:18.540Z,1.38
2023-03-15T06:09:47.302Z,2.85
2023-03-15T06:12:15.002Z,2.70
2023-03-15T06:14:42.392Z,0.98
2023-03-15T06:17:09.893Z,0.32
2023-03-15T06:19:38.060Z,2.33
2023-03-15T06:22:05.720Z,0.40
2023-03-15T06:24:33.306Z,1.88
2023-03-15T06:27:02.401Z,0.50
2023-03-15T06:29:32.436Z,1.35
2023-03-15T06:31:59.903Z,0.20
2023-03-15T06:34:27.303Z,0.68
2023-03-15T06:36:55.861Z,0.45
2023-03-15T06:39:23.702Z,1.75
2023-03-15T06:41:53.439Z,0.80
2023-03-15T06:44:22.170Z,0.50
2023-03-15T06:46:49.848Z,0.20
2023-03-15T06:49:17.224Z,1.20
2023-03-15T06:51:45.070Z,0.68
2023-03-15T06:54:12.511Z,0.70
2023-03-15T06:56:40.036Z,1.73
2023-03-15T06:59:07.468Z,1.73
2023-03-15T07:01:36.244Z,3.22
2023-03-15T07:04:03.686Z,1.58
2023-03-15T07:06:31.265Z,2.83
2023-03-15T07:08:58.715Z,3.65
2023-03-15T07:11:26.434Z,0.88
2023-03-15T07:13:53.978Z,1.55
2023-03-15T07:16:23.363Z,4.35
2023-03-15T07:18:56.442Z,2.38
2023-03-15T07:21:23.823Z,2.65
2023-03-15T07:23:51.196Z,4.03
2023-03-15T07:26:18.886Z,1.52
2023-03-15T07:28:46.481Z,3.10
2023-03-15T07:31:13.977Z,2.97
2023-03-15T07:33:41.469Z,1.80
2023-03-15T07:36:10.473Z,1.83
2023-03-15T07:38:43.359Z,2.78
2023-03-15T07:43:40.836Z,2.33
2023-03-15T07:46:09.233Z,2.55
2023-03-15T07:48:36.762Z,2.22
2023-03-15T07:51:04.493Z,3.08
2023-03-15T07:53:33.701Z,2.60
2023-03-15T07:56:03.102Z,1.35
2023-03-15T07:58:31.434Z,2.70
2023-03-15T08:00:59.212Z,2.30
2023-03-15T08:03:27.591Z,2.30
2023-03-15T08:05:56.463Z,0.30
2023-03-15T08:08:23.897Z,0.75
2023-03-15T08:10:52.640Z,0.30
2023-03-15T08:13:20.020Z,1.13
2023-03-15T08:15:47.934Z,3.65
2023-03-15T08:18:16.429Z,2.67
2023-03-15T08:20:45.120Z,1.95
2023-03-15T08:23:17.286Z,2.25
2023-03-15T08:25:45.666Z,1.67
2023-03-15T08:28:14.780Z,2.55
2023-03-15T08:30:42.238Z,2.25
2023-03-15T08:33:10.105Z,2.67
2023-03-15T08:35:37.682Z,2.78
2023-03-15T08:38:06.380Z,1.33
2023-03-15T08:40:33.758Z,2.95
2023-03-15T08:43:01.152Z,2.05
2023-03-15T08:45:30.591Z,2.03
2023-03-15T08:48:00.125Z,2.10
2023-03-15T08:50:31.520Z,2.45
2023-03-15T08:52:59.450Z,2.58
2023-03-15T08:55:26.818Z,1.35
2023-03-15T08:57:54.519Z,1.58
2023-03-15T09:00:22.836Z,2.72
2023-03-15T09:02:52.824Z,3.08
2023-03-15T09:05:21.787Z,1.20
2023-03-15T09:07:50.136Z,2.17
2023-03-15T09:10:18.664Z,3.05
2023-03-15T09:12:48.780Z,2.08
2023-03-15T09:15:16.841Z,2.00
2023-03-15T09:17:44.415Z,1.38
2023-03-15T09:20:16.489Z,1.58
2023-03-15T09:22:44.565Z,0.80
2023-03-15T09:25:12.265Z,0.20
2023-03-15T09:27:39.651Z,1.73
2023-03-15T09:30:09.050Z,4.10
2023-03-15T09:32:36.892Z,1.00
2023-03-15T09:35:05.076Z,1.25
2023-03-15T09:37:37.464Z,1.20
2023-03-15T09:40:07.798Z,1.70
2023-03-15T09:42:51.735Z,1.20
2023-03-15T09:45:27.554Z,0.90
2023-03-15T09:48:05.242Z,0.45
2023-03-15T09:50:37.980Z,1.80
2023-03-15T09:53:17.196Z,1.35
2023-03-15T09:55:47.441Z,1.65
2023-03-15T09:58:19.050Z,1.08
2023-03-15T10:00:50.446Z,1.42
2023-03-15T10:03:24.025Z,1.05
2023-03-15T10:05:56.788Z,1.02
2023-03-15T10:08:26.677Z,1.20
2023-03-15T10:10:57.711Z,2.03
2023-03-15T10:13:42.350Z,2.53
2023-03-15T10:16:24.258Z,0.60
2023-03-15T10:19:06.266Z,1.90
2023-03-15T10:21:41.605Z,1.20
2023-03-15T10:24:20.302Z,1.75
2023-03-15T10:26:50.145Z,1.63
2023-03-15T10:29:20.694Z,3.92
2023-03-15T10:31:48.316Z,1.10
2023-03-15T10:34:16.827Z,0.70
2023-03-15T10:36:49.253Z,1.33
2023-03-15T10:39:20.644Z,0.50
2023-03-15T10:41:49.518Z,0.73
2023-03-15T10:44:20.149Z,1.65
2023-03-15T10:47:16.020Z,1.33
2023-03-15T10:49:51.393Z,0.88
2023-03-15T10:52:28.247Z,2.00
2023-03-15T10:55:04.348Z,1.70
2023-03-15T10:57:38.861Z,0.75
2023-03-15T11:00:24.139Z,1.20
2023-03-15T11:02:53.531Z,0.80
2023-03-15T11:05:21.454Z,0.82
2023-03-15T11:07:56.320Z,1.70
2023-03-15T11:10:26.732Z,2.35
2023-03-15T11:13:14.737Z,0.30
2023-03-15T11:15:49.287Z,0.40
2023-03-15T11:18:21.301Z,0.82
2023-03-15T11:20:48.834Z,1.55
2023-03-15T11:23:20.370Z,1.10
2023-03-15T11:25:50.100Z,1.23
2023-03-15T11:28:20.562Z,1.23
2023-03-15T11:30:49.064Z,1.20
2023-03-15T11:33:33.452Z,2.10
2023-03-15T11:36:03.100Z,1.02
2023-03-15T11:38:34.313Z,0.80
2023-03-15T11:41:11.870Z,1.00
2023-03-15T11:43:48.961Z,1.30
2023-03-15T11:46:26.238Z,0.40
2023-03-15T11:48:59.747Z,0.30
2023-03-15T11:51:27.188Z,1.05
2023-03-15T11:54:06.368Z,1.95
2023-03-15T11:56:52.614Z,0.68
2023-03-15T11:59:22.118Z,2.40
2023-03-15T12:01:52.472Z,1.73
2023-03-15T12:04:43.803Z,0.73
2023-03-15T12:07:38.162Z,1.20
2023-03-15T12:10:32.361Z,1.83
2023-03-15T12:13:08.555Z,0.68
2023-03-15T12:15:45.884Z,1.17
2023-03-15T12:18:39.572Z,1.08
2023-03-15T12:21:13.136Z,2.20
2023-03-15T12:23:43.930Z,0.73
2023-03-15T12:26:27.372Z,0.30
2023-03-15T12:29:08.141Z,0.70
2023-03-15T12:31:53.376Z,0.90
2023-03-15T12:34:31.584Z,0.90
2023-03-15T12:37:05.746Z,0.98
2023-03-15T12:39:43.249Z,1.45
2023-03-15T12:42:49.965Z,0.57
2023-03-15T12:45:39.898Z,0.10
2023-03-15T12:48:24.308Z,0.20
2023-03-15T12:50:55.598Z,0.75
2023-03-15T12:53:29.465Z,0.55
2023-03-15T12:56:07.904Z,0.22
2023-03-15T12:58:37.560Z,1.08
2023-03-15T13:01:08.585Z,0.40
2023-03-15T13:03:38.642Z,0.75
2023-03-15T13:06:19.277Z,0.40
2023-03-15T13:08:53.713Z,0.85
2023-03-15T13:11:28.236Z,0.52
2023-03-15T13:14:06.035Z,0.60
2023-03-15T13:16:39.244Z,0.63
2023-03-15T13:19:17.862Z,0.85
2023-03-15T13:22:01.681Z,0.90
2023-03-15T13:24:42.602Z,0.77
2023-03-15T13:27:16.839Z,0.68
2023-03-15T13:29:44.380Z,1.85
2023-03-15T13:32:16.916Z,0.70
2023-03-15T13:34:46.874Z,0.60
2023-03-15T13:37:16.865Z,0.57
2023-03-15T13:39:55.979Z,0.52
2023-03-15T13:42:25.333Z,0.50
2023-03-15T13:45:12.887Z,0.30
2023-03-15T13:47:44.001Z,0.75
2023-03-15T13:50:16.295Z,0.32
2023-03-15T13:52:44.597Z,0.10
2023-03-15T13:55:15.177Z,0.93
2023-03-15T13:57:43.032Z,1.35
2023-03-15T14:00:14.336Z,0.55
2023-03-15T14:02:49.358Z,0.32
2023-03-15T14:05:26.926Z,0.65
2023-03-15T14:08:02.607Z,2.08
2023-03-15T14:10:32.542Z,0.35
2023-03-15T14:13:16.579Z,0.85
2023-03-15T14:15:45.074Z,0.10
2023-03-15T14:18:20.499Z,0.38
2023-03-15T14:20:54.159Z,1.65
2023-03-15T14:23:25.119Z,0.77
2023-03-15T14:25:54.429Z,0.00
2023-03-15T14:28:24.365Z,0.35
2023-03-15T14:30:54.589Z,0.15
2023-03-15T14:33:32.082Z,1.45
2023-03-15T14:36:02.326Z,0.30
2023-03-15T14:38:36.832Z,0.00
2023-03-15T14:41:25.739Z,0.00
2023-03-15T14:43:53.273Z,0.10
2023-03-15T14:46:21.002Z,0.00
2023-03-15T14:48:50.966Z,0.43
2023-03-15T14:51:20.612Z,1.83
2023-03-15T14:53:57.099Z,0.00
2023-03-15T14:56:25.068Z,0.13
2023-03-15T14:58:54.026Z,0.45
2023-03-15T15:01:26.126Z,1.08
2023-03-15T15:03:58.223Z,0.97
2023-03-15T15:06:27.892Z,0.20
2023-03-15T15:08:58.782Z,0.10
2023-03-15T15:11:26.426Z,0.25
2023-03-15T15:13:54.183Z,0.00
2023-03-15T15:16:21.745Z,1.75
2023-03-15T15:18:49.236Z,0.00
2023-03-15T15:21:20.781Z,1.95
2023-03-15T15:23:58.069Z,2.45
2023-03-15T15:26:28.463Z,0.38
2023-03-15T15:28:56.537Z,0.90
2023-03-15T15:31:25.941Z,0.70
2023-03-15T15:33:55.214Z,0.00
2023-03-15T15:36:27.644Z,1.13
2023-03-15T15:38:55.503Z,0.10
2023-03-15T15:41:26.276Z,0.47
2023-03-15T15:43:54.179Z,0.20
2023-03-15T15:46:21.750Z,1.00
2023-03-15T15:48:49.144Z,0.10
2023-03-15T15:51:26.427Z,0.10
2023-03-15T15:53:56.036Z,1.00
2023-03-15T15:56:31.849Z,0.05
2023-03-15T15:58:59.826Z,1.40
2023-03-15T16:01:27.359Z,0.32
2023-03-15T16:03:55.389Z,1.65
2023-03-15T16:06:23.434Z,0.88
2023-03-15T16:08:53.389Z,0.68
2023-03-15T16:11:21.919Z,0.10
2023-03-15T16:13:53.664Z,0.20
2023-03-15T16:16:21.525Z,0.10
2023-03-15T16:18:49.086Z,0.13
2023-03-15T16:21:21.886Z,0.28
2023-03-15T16:23:58.174Z,0.47
2023-03-15T16:26:25.957Z,0.10
2023-03-15T16:28:53.336Z,0.10
2023-03-15T16:31:22.733Z,0.00
2023-03-15T16:33:50.674Z,0.10
2023-03-15T16:36:19.256Z,0.10
2023-03-15T16:38:46.835Z,0.95
2023-03-15T16:41:18.273Z,0.10
2023-03-15T16:43:48.943Z,0.10
2023-03-15T16:46:17.953Z,0.10
2023-03-15T16:48:45.501Z,0.10
2023-03-15T16:51:15.461Z,0.20
2023-03-15T16:53:44.382Z,0.30
2023-03-15T16:56:15.428Z,0.20
2023-03-15T16:58:44.325Z,0.65
2023-03-15T17:01:12.571Z,0.20
2023-03-15T17:03:39.988Z,0.20
2023-03-15T17:06:16.392Z,1.10
2023-03-15T17:08:44.057Z,0.30
2023-03-15T17:11:11.594Z,1.00
2023-03-15T17:13:41.843Z,1.67
2023-03-15T17:16:12.740Z,0.20
2023-03-15T17:18:42.009Z,0.30
2023-03-15T17:21:12.737Z,0.40
2023-03-15T17:23:40.518Z,0.30
2023-03-15T17:26:12.533Z,0.25
2023-03-15T17:28:42.622Z,0.30
2023-03-15T17:31:24.668Z,0.50
2023-03-15T17:33:52.565Z,0.30
2023-03-15T17:36:22.834Z,0.30
2023-03-15T17:38:51.295Z,0.30
2023-03-15T17:41:22.049Z,0.30
2023-03-15T17:43:52.585Z,0.30
2023-03-15T17:46:22.066Z,0.30
2023-03-15T17:48:49.871Z,0.30
2023-03-15T17:51:21.768Z,0.60
2023-03-15T17:53:49.269Z,0.30
2023-03-15T17:56:16.957Z,0.30
2023-03-15T17:58:48.210Z,0.30
2023-03-15T18:01:19.516Z,0.30
2023-03-15T18:03:47.090Z,0.30
2023-03-15T18:06:15.153Z,0.30
2023-03-15T18:08:43.465Z,0.30
2023-03-15T18:11:16.773Z,0.40
2023-03-15T18:13:44.417Z,0.35
2023-03-15T18:16:14.448Z,0.30
2023-03-15T18:18:43.278Z,0.43
2023-03-15T18:21:13.799Z,0.40
2023-03-15T18:23:41.442Z,0.30
2023-03-15T18:26:09.584Z,0.40
2023-03-15T18:28:36.968Z,0.30
2023-03-15T18:31:04.675Z,0.50
2023-03-15T18:33:32.277Z,0.77
2023-03-15T18:36:01.032Z,0.45
2023-03-15T18:38:29.772Z,0.50
2023-03-15T18:40:57.370Z,0.57
2023-03-15T18:43:24.972Z,1.00
2023-03-15T18:45:52.444Z,1.38
2023-03-15T18:48:27.895Z,0.88
2023-03-15T18:51:03.099Z,0.32
2023-03-15T18:53:31.033Z,0.30
2023-03-15T18:55:58.650Z,0.30
2023-03-15T18:58:26.266Z,0.40
2023-03-15T19:00:53.700Z,0.30
2023-03-15T19:03:21.105Z,0.38
2023-03-15T19:05:48.475Z,0.30
2023-03-15T19:08:17.236Z,0.32
2023-03-15T19:10:47.011Z,0.40
2023-03-15T19:13:14.362Z,0.30
2023-03-15T19:15:41.755Z,0.40
2023-03-15T19:18:09.516Z,0.45
2023-03-15T19:20:37.441Z,0.50
2023-03-15T19:23:05.026Z,2.13
2023-03-15T19:25:35.074Z,1.10
2023-03-15T19:28:02.427Z,0.40
2023-03-15T19:30:30.794Z,0.30
2023-03-15T19:32:58.368Z,0.30
2023-03-15T19:35:26.773Z,0.40
2023-03-15T19:37:56.144Z,0.52
2023-03-15T19:40:23.650Z,0.30
2023-03-15T19:42:52.531Z,0.30
2023-03-15T19:45:20.107Z,0.32
2023-03-15T19:47:47.528Z,0.60
2023-03-15T19:50:15.986Z,0.65
2023-03-15T19:52:46.633Z,1.45
2023-03-15T19:55:15.280Z,1.88
2023-03-15T19:57:42.686Z,0.80
2023-03-15T20:00:14.079Z,1.05
2023-03-15T20:02:41.898Z,0.50
2023-03-15T20:05:11.074Z,1.15
2023-03-15T20:07:38.981Z,2.92
2023-03-15T20:10:08.399Z,1.50
2023-03-15T20:12:36.297Z,1.65
2023-03-15T20:15:06.047Z,0.40
2023-03-15T20:17:34.756Z,0.45
2023-03-15T20:20:02.817Z,0.50
2023-03-15T20:22:30.226Z,0.93
2023-03-15T20:24:57.607Z,0.52
2023-03-15T20:27:25.000Z,1.05
2023-03-15T20:29:52.993Z,0.40
2023-03-15T20:32:20.383Z,0.75
2023-03-15T20:34:49.107Z,0.40
2023-03-15T20:37:16.571Z,0.40
2023-03-15T20:39:43.953Z,0.30
2023-03-15T20:42:11.312Z,1.17
2023-03-15T20:44:41.639Z,0.40
2023-03-15T20:47:10.617Z,0.85
2023-03-15T20:49:38.094Z,0.40
2023-03-15T20:52:07.135Z,0.52
2023-03-15T20:54:34.891Z,0.40
2023-03-15T20:57:02.271Z,0.82
2023-03-15T20:59:29.882Z,0.40
2023-03-15T21:01:57.254Z,0.40
2023-03-15T21:04:26.005Z,1.58
2023-03-15T21:06:53.513Z,0.32
2023-03-15T21:09:22.268Z,0.40
2023-03-15T21:11:49.926Z,0.95
2023-03-15T21:14:17.292Z,0.40
2023-03-15T21:16:44.675Z,0.40
2023-03-15T21:19:12.146Z,0.50
2023-03-15T21:21:43.008Z,0.50
2023-03-15T21:24:10.724Z,1.10
2023-03-15T21:26:39.518Z,0.60
2023-03-15T21:29:06.997Z,0.32
2023-03-15T21:31:36.445Z,0.40
2023-03-15T21:34:04.986Z,0.47
2023-03-15T21:36:32.427Z,1.70
2023-03-15T21:39:01.401Z,0.40
2023-03-15T21:41:28.799Z,2.05
2023-03-15T21:43:57.509Z,0.82
2023-03-15T21:46:24.941Z,0.40
2023-03-15T21:48:52.350Z,0.60
2023-03-15T21:51:19.736Z,0.40
2023-03-15T21:53:47.180Z,0.50
2023-03-15T21:56:14.646Z,0.93
2023-03-15T21:58:42.643Z,0.40
2023-03-15T22:01:13.996Z,0.40
2023-03-15T22:03:44.084Z,0.50
2023-03-15T22:06:12.863Z,0.40
2023-03-15T22:08:41.845Z,0.40
2023-03-15T22:11:09.317Z,0.40
2023-03-15T22:13:37.138Z,1.38
2023-03-15T22:16:05.032Z,0.40
2023-03-15T22:18:33.757Z,0.40
2023-03-15T22:21:01.175Z,0.40
2023-03-15T22:23:28.825Z,0.93
2023-03-15T22:25:57.153Z,1.38
2023-03-15T22:28:25.904Z,0.40
2023-03-15T22:30:54.288Z,0.40
2023-03-15T22:33:23.038Z,0.40
2023-03-15T22:35:56.571Z,0.77
2023-03-15T22:38:25.561Z,0.40
2023-03-15T22:41:00.963Z,0.40
2023-03-15T22:43:28.626Z,0.47
2023-03-15T22:45:56.063Z,0.95
2023-03-15T22:48:23.753Z,0.47
2023-03-15T22:50:58.530Z,0.40
2023-03-15T22:53:25.912Z,0.40
2023-03-15T22:55:53.281Z,0.50
2023-03-15T22:58:20.833Z,0.40
2023-03-15T23:00:48.740Z,1.05
2023-03-15T23:03:16.704Z,0.40
2023-03-15T23:05:46.804Z,0.50
2023-03-15T23:08:15.571Z,0.50
2023-03-15T23:10:43.486Z,0.50
2023-03-15T23:13:11.608Z,0.50
2023-03-15T23:15:39.267Z,0.40
2023-03-15T23:18:06.851Z,0.50
2023-03-15T23:20:34.498Z,0.50
2023-03-15T23:23:01.982Z,0.70
2023-03-15T23:25:30.733Z,0.50
2023-03-15T23:27:59.278Z,0.50
2023-03-15T23:30:28.157Z,0.50
2023-03-15T23:32:59.527Z,0.50
2023-03-15T23:35:27.927Z,0.47
2023-03-15T23:37:57.084Z,1.90
2023-03-15T23:40:25.712Z,0.52
2023-03-15T23:42:59.087Z,0.50
2023-03-15T23:45:29.398Z,0.40
2023-03-15T23:47:57.055Z,0.73
2023-03-15T23:50:26.017Z,0.85
2023-03-15T23:52:54.487Z,1.48
2023-03-15T23:55:23.346Z,0.40
2023-03-15T23:57:50.981Z,0.50
